sensor_id;sensor_type;location;lat;lon;timestamp;pressure;altitude;pressure_sealevel;temperature;humidity
7407;BME280;3745;56.964;24.128;2023-02-14T00:00:40;102301.19;;;3.76;100.00
7407;BME280;3745;56.964;24.128;2023-02-14T00:03:06;102329.91;;;3.94;100.00
7407;BME280;3745;56.964;24.128;2023-02-14T00:05:31;102331.94;;;3.87;100.00
7407;BME280;3745;56.964;24.128;2023-02-14T00:07:57;102335.31;;;3.87;100.00
7407;BME280;3745;56.964;24.128;2023-02-14T00:10:23;102351.41;;;3.91;100.00
7407;BME280;3745;56.964;24.128;2023-02-14T00:12:48;102346.22;;;3.88;100.00
7407;BME280;3745;56.964;24.128;2023-02-14T00:15:14;102344.47;;;3.87;100.00
7407;BME280;3745;56.964;24.128;2023-02-14T00:17:53;102344.28;;;3.83;100.00
7407;BME280;3745;56.964;24.128;2023-02-14T00:20:21;102342.72;;;3.86;100.00
7407;BME280;3745;56.964;24.128;2023-02-14T00:22:47;102350.78;;;3.81;100.00
7407;BME280;3745;56.964;24.128;2023-02-14T00:25:12;102353.41;;;3.83;100.00
7407;BME280;3745;56.964;24.128;2023-02-14T00:27:38;102353.22;;;3.80;100.00
7407;BME280;3745;56.964;24.128;2023-02-14T00:30:06;102334.69;;;3.65;100.00
7407;BME280;3745;56.964;24.128;2023-02-14T00:32:31;102355.59;;;3.78;100.00
7407;BME280;3745;56.964;24.128;2023-02-14T00:34:57;102363.22;;;3.80;100.00
7407;BME280;3745;56.964;24.128;2023-02-14T00:37:22;102358.88;;;3.77;100.00
7407;BME280;3745;56.964;24.128;2023-02-14T00:39:48;102359.56;;;3.75;100.00
7407;BME280;3745;56.964;24.128;2023-02-14T00:42:14;102365.22;;;3.72;100.00
7407;BME280;3745;56.964;24.128;2023-02-14T00:44:41;102356.53;;;3.67;100.00
7407;BME280;3745;56.964;24.128;2023-02-14T00:47:07;102352.00;;;3.62;100.00
7407;BME280;3745;56.964;24.128;2023-02-14T00:49:32;102355.94;;;3.58;100.00
7407;BME280;3745;56.964;24.128;2023-02-14T00:51:58;102381.97;;;3.73;100.00
7407;BME280;3745;56.964;24.128;2023-02-14T00:54:24;102353.03;;;3.52;100.00
7407;BME280;3745;56.964;24.128;2023-02-14T00:56:49;102384.81;;;3.78;100.00
7407;BME280;3745;56.964;24.128;2023-02-14T00:59:15;102334.56;;;3.50;100.00
7407;BME280;3745;56.964;24.128;2023-02-14T01:01:44;102386.59;;;3.67;100.00
7407;BME280;3745;56.964;24.128;2023-02-14T01:04:09;102392.00;;;3.73;100.00
7407;BME280;3745;56.964;24.128;2023-02-14T01:06:35;102402.22;;;3.76;100.00
7407;BME280;3745;56.964;24.128;2023-02-14T01:09:01;102346.66;;;3.44;100.00
7407;BME280;3745;56.964;24.128;2023-02-14T01:11:26;102406.25;;;3.74;100.00
7407;BME280;3745;56.964;24.128;2023-02-14T01:13:54;102393.94;;;3.77;100.00
7407;BME280;3745;56.964;24.128;2023-02-14T01:16:21;102375.81;;;3.68;100.00
7407;BME280;3745;56.964;24.128;2023-02-14T01:18:47;102388.53;;;3.71;100.00
7407;BME280;3745;56.964;24.128;2023-02-14T01:23:39;102412.22;;;3.76;100.00
7407;BME280;3745;56.964;24.128;2023-02-14T01:26:06;102404.66;;;3.63;100.00
7407;BME280;3745;56.964;24.128;2023-02-14T01:28:32;102423.78;;;3.74;100.00
7407;BME280;3745;56.964;24.128;2023-02-14T01:31:08;102416.16;;;3.73;100.00
7407;BME280;3745;56.964;24.128;2023-02-14T01:33:35;102329.56;;;3.14;100.00
7407;BME280;3745;56.964;24.128;2023-02-14T01:36:00;102418.91;;;3.64;100.00
7407;BME280;3745;56.964;24.128;2023-02-14T01:38:26;102422.97;;;3.62;100.00
7407;BME280;3745;56.964;24.128;2023-02-14T01:40:52;102426.44;;;3.64;100.00
7407;BME280;3745;56.964;24.128;2023-02-14T01:43:17;102432.31;;;3.65;100.00
7407;BME280;3745;56.964;24.128;2023-02-14T01:45:43;102423.56;;;3.71;100.00
7407;BME280;3745;56.964;24.128;2023-02-14T01:48:08;102406.53;;;3.54;100.00
7407;BME280;3745;56.964;24.128;2023-02-14T01:50:38;102405.16;;;3.46;100.00
7407;BME280;3745;56.964;24.128;2023-02-14T01:53:12;102426.47;;;3.53;100.00
7407;BME280;3745;56.964;24.128;2023-02-14T01:55:43;102440.06;;;3.56;100.00
7407;BME280;3745;56.964;24.128;2023-02-14T01:58:14;102444.13;;;3.43;100.00
7407;BME280;3745;56.964;24.128;2023-02-14T02:00:41;102413.50;;;3.22;100.00
7407;BME280;3745;56.964;24.128;2023-02-14T02:03:59;102449.59;;;3.37;100.00
7407;BME280;3745;56.964;24.128;2023-02-14T02:06:25;102459.19;;;3.31;100.00
7407;BME280;3745;56.964;24.128;2023-02-14T02:11:38;102391.41;;;2.92;100.00
7407;BME280;3745;56.964;24.128;2023-02-14T02:14:04;102457.22;;;3.27;100.00
7407;BME280;3745;56.964;24.128;2023-02-14T02:19:35;102464.84;;;3.28;100.00
7407;BME280;3745;56.964;24.128;2023-02-14T02:25:15;102462.22;;;3.27;100.00
7407;BME280;3745;56.964;24.128;2023-02-14T02:33:31;102482.88;;;3.24;100.00
7407;BME280;3745;56.964;24.128;2023-02-14T02:36:14;102443.34;;;2.96;100.00
7407;BME280;3745;56.964;24.128;2023-02-14T02:44:17;102490.97;;;3.09;100.00
7407;BME280;3745;56.964;24.128;2023-02-14T02:49:44;102499.22;;;3.08;100.00
7407;BME280;3745;56.964;24.128;2023-02-14T02:58:19;102511.84;;;2.98;100.00
7407;BME280;3745;56.964;24.128;2023-02-14T03:00:49;102496.41;;;2.92;100.00
7407;BME280;3745;56.964;24.128;2023-02-14T03:03:16;102515.53;;;3.03;100.00
7407;BME280;3745;56.964;24.128;2023-02-14T03:06:01;102485.75;;;2.83;100.00
7407;BME280;3745;56.964;24.128;2023-02-14T03:08:27;102527.50;;;3.07;100.00
7407;BME280;3745;56.964;24.128;2023-02-14T03:10:53;102507.28;;;3.04;100.00
7407;BME280;3745;56.964;24.128;2023-02-14T03:14:00;102520.31;;;3.11;100.00
7407;BME280;3745;56.964;24.128;2023-02-14T03:16:34;102526.72;;;3.08;100.00
7407;BME280;3745;56.964;24.128;2023-02-14T03:22:06;102524.00;;;3.05;100.00
7407;BME280;3745;56.964;24.128;2023-02-14T03:24:46;102525.75;;;3.06;100.00
7407;BME280;3745;56.964;24.128;2023-02-14T03:27:21;102533.25;;;3.06;100.00
7407;BME280;3745;56.964;24.128;2023-02-14T03:30:06;102509.44;;;2.88;100.00
7407;BME280;3745;56.964;24.128;2023-02-14T03:32:41;102543.56;;;2.99;100.00
7407;BME280;3745;56.964;24.128;2023-02-14T03:35:29;102530.09;;;2.97;100.00
7407;BME280;3745;56.964;24.128;2023-02-14T03:43:25;102543.34;;;2.96;100.00
7407;BME280;3745;56.964;24.128;2023-02-14T03:46:04;102560.84;;;2.96;100.00
7407;BME280;3745;56.964;24.128;2023-02-14T03:48:32;102508.34;;;2.72;100.00
7407;BME280;3745;56.964;24.128;2023-02-14T03:50:59;102555.75;;;2.94;100.00
7407;BME280;3745;56.964;24.128;2023-02-14T03:53:28;102513.34;;;2.72;100.00
7407;BME280;3745;56.964;24.128;2023-02-14T03:56:21;102545.53;;;2.91;100.00
7407;BME280;3745;56.964;24.128;2023-02-14T03:58:53;102539.66;;;2.91;100.00
7407;BME280;3745;56.964;24.128;2023-02-14T04:01:33;102513.56;;;2.64;100.00
7407;BME280;3745;56.964;24.128;2023-02-14T04:04:01;102559.44;;;2.99;100.00
7407;BME280;3745;56.964;24.128;2023-02-14T04:06:27;102565.97;;;2.97;100.00
7407;BME280;3745;56.964;24.128;2023-02-14T04:08:52;102557.38;;;2.94;100.00
7407;BME280;3745;56.964;24.128;2023-02-14T04:11:18;102562.16;;;2.91;100.00
7407;BME280;3745;56.964;24.128;2023-02-14T04:13:44;102532.03;;;2.78;100.00
7407;BME280;3745;56.964;24.128;2023-02-14T04:16:09;102563.91;;;2.92;100.00
7407;BME280;3745;56.964;24.128;2023-02-14T04:18:35;102529.66;;;2.67;100.00
7407;BME280;3745;56.964;24.128;2023-02-14T04:21:19;102536.38;;;2.68;100.00
7407;BME280;3745;56.964;24.128;2023-02-14T04:23:44;102548.78;;;2.79;100.00
7407;BME280;3745;56.964;24.128;2023-02-14T04:26:10;102547.25;;;2.81;100.00
7407;BME280;3745;56.964;24.128;2023-02-14T04:28:35;102552.03;;;2.78;100.00
7407;BME280;3745;56.964;24.128;2023-02-14T04:31:02;102577.69;;;2.87;100.00
7407;BME280;3745;56.964;24.128;2023-02-14T04:33:28;102523.97;;;2.58;100.00
7407;BME280;3745;56.964;24.128;2023-02-14T04:35:54;102569.00;;;2.82;100.00
7407;BME280;3745;56.964;24.128;2023-02-14T04:38:19;102560.31;;;2.77;100.00
7407;BME280;3745;56.964;24.128;2023-02-14T04:40:48;102601.19;;;2.89;100.00
7407;BME280;3745;56.964;24.128;2023-02-14T04:43:14;102587.69;;;2.87;100.00
7407;BME280;3745;56.964;24.128;2023-02-14T04:45:39;102592.03;;;2.78;100.00
7407;BME280;3745;56.964;24.128;2023-02-14T04:48:05;102572.97;;;2.68;100.00
7407;BME280;3745;56.964;24.128;2023-02-14T04:50:30;102604.00;;;2.82;100.00
7407;BME280;3745;56.964;24.128;2023-02-14T04:52:56;102615.53;;;2.80;100.00
7407;BME280;3745;56.964;24.128;2023-02-14T04:55:22;102594.19;;;2.61;100.00
7407;BME280;3745;56.964;24.128;2023-02-14T04:57:47;102623.97;;;2.70;100.00
7407;BME280;3745;56.964;24.128;2023-02-14T05:00:13;102603.69;;;2.55;100.00
7407;BME280;3745;56.964;24.128;2023-02-14T05:02:39;102609.56;;;2.56;100.00
7407;BME280;3745;56.964;24.128;2023-02-14T05:05:05;102614.47;;;2.54;100.00
7407;BME280;3745;56.964;24.128;2023-02-14T05:07:31;102603.66;;;2.44;100.00
7407;BME280;3745;56.964;24.128;2023-02-14T05:09:56;102545.31;;;2.10;100.00
7407;BME280;3745;56.964;24.128;2023-02-14T05:12:22;102637.19;;;2.57;100.00
7407;BME280;3745;56.964;24.128;2023-02-14T05:14:47;102566.19;;;2.22;100.00
7407;BME280;3745;56.964;24.128;2023-02-14T05:17:13;102650.22;;;2.65;100.00
7407;BME280;3745;56.964;24.128;2023-02-14T05:19:38;102664.59;;;2.67;100.00
7407;BME280;3745;56.964;24.128;2023-02-14T05:22:04;102674.06;;;2.71;100.00
7407;BME280;3745;56.964;24.128;2023-02-14T05:24:30;102654.38;;;2.64;100.00
7407;BME280;3745;56.964;24.128;2023-02-14T05:26:55;102657.41;;;2.60;100.00
7407;BME280;3745;56.964;24.128;2023-02-14T05:29:21;102685.81;;;2.72;100.00
7407;BME280;3745;56.964;24.128;2023-02-14T05:31:46;102687.34;;;2.70;100.00
7407;BME280;3745;56.964;24.128;2023-02-14T05:34:12;102649.97;;;2.50;100.00
7407;BME280;3745;56.964;24.128;2023-02-14T05:36:37;102662.41;;;2.60;100.00
7407;BME280;3745;56.964;24.128;2023-02-14T05:39:03;102677.44;;;2.72;100.00
7407;BME280;3745;56.964;24.128;2023-02-14T05:41:29;102644.72;;;2.47;100.00
7407;BME280;3745;56.964;24.128;2023-02-14T05:43:55;102656.06;;;2.54;100.00
7407;BME280;3745;56.964;24.128;2023-02-14T05:46:20;102663.03;;;2.58;100.00
7407;BME280;3745;56.964;24.128;2023-02-14T05:48:46;102663.66;;;2.55;100.00
7407;BME280;3745;56.964;24.128;2023-02-14T05:51:11;102694.84;;;2.70;100.00
7407;BME280;3745;56.964;24.128;2023-02-14T05:53:37;102702.63;;;2.63;100.00
7407;BME280;3745;56.964;24.128;2023-02-14T05:56:03;102697.38;;;2.60;100.00
7407;BME280;3745;56.964;24.128;2023-02-14T05:58:29;102672.97;;;2.46;100.00
7407;BME280;3745;56.964;24.128;2023-02-14T06:00:57;102699.38;;;2.64;100.00
7407;BME280;3745;56.964;24.128;2023-02-14T06:03:23;102685.81;;;2.51;100.00
7407;BME280;3745;56.964;24.128;2023-02-14T06:05:49;102654.84;;;2.27;100.00
7407;BME280;3745;56.964;24.128;2023-02-14T06:08:14;102716.50;;;2.60;100.00
7407;BME280;3745;56.964;24.128;2023-02-14T06:10:40;102708.91;;;2.58;100.00
7407;BME280;3745;56.964;24.128;2023-02-14T06:13:06;102710.16;;;2.53;100.00
7407;BME280;3745;56.964;24.128;2023-02-14T06:15:36;102711.91;;;2.54;100.00
7407;BME280;3745;56.964;24.128;2023-02-14T06:18:03;102704.06;;;2.50;100.00
7407;BME280;3745;56.964;24.128;2023-02-14T06:20:29;102720.38;;;2.56;100.00
7407;BME280;3745;56.964;24.128;2023-02-14T06:22:55;102718.16;;;2.49;100.00
7407;BME280;3745;56.964;24.128;2023-02-14T06:25:22;102716.44;;;2.48;100.00
7407;BME280;3745;56.964;24.128;2023-02-14T06:27:48;102735.28;;;2.55;100.00
7407;BME280;3745;56.964;24.128;2023-02-14T06:30:14;102741.03;;;2.54;100.00
7407;BME280;3745;56.964;24.128;2023-02-14T06:32:40;102737.38;;;2.60;100.00
7407;BME280;3745;56.964;24.128;2023-02-14T06:35:06;102731.09;;;2.65;100.00
7407;BME280;3745;56.964;24.128;2023-02-14T06:37:32;102726.00;;;2.64;100.00
7407;BME280;3745;56.964;24.128;2023-02-14T06:39:58;102674.84;;;2.27;100.00
7407;BME280;3745;56.964;24.128;2023-02-14T06:42:24;102684.25;;;2.41;100.00
7407;BME280;3745;56.964;24.128;2023-02-14T06:44:50;102691.41;;;2.37;100.00
7407;BME280;3745;56.964;24.128;2023-02-14T06:47:15;102736.72;;;2.63;100.00
7407;BME280;3745;56.964;24.128;2023-02-14T06:49:41;102662.44;;;2.29;100.00
7407;BME280;3745;56.964;24.128;2023-02-14T06:52:06;102739.00;;;2.82;100.00
7407;BME280;3745;56.964;24.128;2023-02-14T06:54:32;102714.19;;;2.73;100.00
7407;BME280;3745;56.964;24.128;2023-02-14T06:56:58;102739.31;;;2.86;100.00
7407;BME280;3745;56.964;24.128;2023-02-14T06:59:23;102751.91;;;2.98;100.00
7407;BME280;3745;56.964;24.128;2023-02-14T07:01:49;102741.50;;;3.15;100.00
7407;BME280;3745;56.964;24.128;2023-02-14T07:04:15;102736.97;;;3.21;100.00
7407;BME280;3745;56.964;24.128;2023-02-14T07:06:43;102711.50;;;3.15;100.00
7407;BME280;3745;56.964;24.128;2023-02-14T07:09:09;102735.25;;;3.32;100.00
7407;BME280;3745;56.964;24.128;2023-02-14T07:11:34;102747.88;;;3.33;100.00
7407;BME280;3745;56.964;24.128;2023-02-14T07:14:00;102739.16;;;3.28;100.00
7407;BME280;3745;56.964;24.128;2023-02-14T07:16:25;102703.59;;;2.99;100.00
7407;BME280;3745;56.964;24.128;2023-02-14T07:18:51;102731.28;;;3.12;100.00
7407;BME280;3745;56.964;24.128;2023-02-14T07:21:16;102779.44;;;3.31;100.00
7407;BME280;3745;56.964;24.128;2023-02-14T07:23:42;102758.50;;;3.19;100.00
7407;BME280;3745;56.964;24.128;2023-02-14T07:26:12;102774.19;;;3.28;100.00
7407;BME280;3745;56.964;24.128;2023-02-14T07:28:45;102591.41;;;2.25;100.00
7407;BME280;3745;56.964;24.128;2023-02-14T07:31:14;102728.25;;;3.16;100.00
7407;BME280;3745;56.964;24.128;2023-02-14T07:33:39;102757.88;;;3.33;100.00
7407;BME280;3745;56.964;24.128;2023-02-14T07:36:06;102750.94;;;3.29;100.00
7407;BME280;3745;56.964;24.128;2023-02-14T07:38:32;102759.63;;;3.34;100.00
7407;BME280;3745;56.964;24.128;2023-02-14T07:40:58;102777.09;;;3.44;100.00
7407;BME280;3745;56.964;24.128;2023-02-14T07:43:26;102775.09;;;3.40;100.00
7407;BME280;3745;56.964;24.128;2023-02-14T07:45:52;102740.22;;;3.20;100.00
7407;BME280;3745;56.964;24.128;2023-02-14T07:48:18;102779.34;;;3.41;100.00
7407;BME280;3745;56.964;24.128;2023-02-14T07:50:43;102750.97;;;3.52;100.00
7407;BME280;3745;56.964;24.128;2023-02-14T07:53:09;102752.09;;;4.02;100.00
7407;BME280;3745;56.964;24.128;2023-02-14T07:55:35;102768.63;;;4.35;100.00
7407;BME280;3745;56.964;24.128;2023-02-14T07:58:00;102777.78;;;4.34;100.00
7407;BME280;3745;56.964;24.128;2023-02-14T08:00:26;102771.25;;;4.25;100.00
7407;BME280;3745;56.964;24.128;2023-02-14T08:02:52;102787.19;;;4.14;100.00
7407;BME280;3745;56.964;24.128;2023-02-14T08:05:21;102788.94;;;4.15;100.00
7407;BME280;3745;56.964;24.128;2023-02-14T08:07:46;102796.22;;;4.12;100.00
7407;BME280;3745;56.964;24.128;2023-02-14T08:10:12;102795.88;;;4.07;100.00
7407;BME280;3745;56.964;24.128;2023-02-14T08:12:38;102740.53;;;3.69;100.00
7407;BME280;3745;56.964;24.128;2023-02-14T08:15:22;102753.38;;;3.62;100.00
7407;BME280;3745;56.964;24.128;2023-02-14T08:18:06;102810.91;;;3.96;100.00
7407;BME280;3745;56.964;24.128;2023-02-14T08:20:31;102805.25;;;3.98;100.00
7407;BME280;3745;56.964;24.128;2023-02-14T08:22:57;102777.56;;;3.85;100.00
7407;BME280;3745;56.964;24.128;2023-02-14T08:25:23;102765.59;;;3.93;100.00
7407;BME280;3745;56.964;24.128;2023-02-14T08:27:49;102729.97;;;3.50;100.00
7407;BME280;3745;56.964;24.128;2023-02-14T08:30:14;102776.28;;;4.02;100.00
7407;BME280;3745;56.964;24.128;2023-02-14T08:32:40;102813.09;;;4.37;100.00
7407;BME280;3745;56.964;24.128;2023-02-14T08:35:06;102795.88;;;4.42;100.00
7407;BME280;3745;56.964;24.128;2023-02-14T08:37:32;102819.94;;;4.63;100.00
7407;BME280;3745;56.964;24.128;2023-02-14T08:39:57;102805.22;;;4.56;100.00
7407;BME280;3745;56.964;24.128;2023-02-14T08:42:23;102810.88;;;4.65;100.00
7407;BME280;3745;56.964;24.128;2023-02-14T08:44:48;102808.94;;;4.61;100.00
7407;BME280;3745;56.964;24.128;2023-02-14T08:47:14;102817.66;;;4.55;100.00
7407;BME280;3745;56.964;24.128;2023-02-14T08:49:39;102775.84;;;4.30;100.00
7407;BME280;3745;56.964;24.128;2023-02-14T08:52:05;102831.50;;;4.61;100.00
7407;BME280;3745;56.964;24.128;2023-02-14T08:54:31;102824.19;;;4.64;100.00
7407;BME280;3745;56.964;24.128;2023-02-14T08:56:56;102830.94;;;4.65;100.00
7407;BME280;3745;56.964;24.128;2023-02-14T08:59:22;102833.13;;;4.72;100.00
7407;BME280;3745;56.964;24.128;2023-02-14T09:01:50;102829.63;;;4.70;100.00
7407;BME280;3745;56.964;24.128;2023-02-14T09:04:16;102786.72;;;4.31;100.00
7407;BME280;3745;56.964;24.128;2023-02-14T09:06:42;102808.06;;;4.49;100.00
7407;BME280;3745;56.964;24.128;2023-02-14T09:09:07;102827.16;;;4.47;100.00
7407;BME280;3745;56.964;24.128;2023-02-14T09:11:33;102812.88;;;4.23;100.00
7407;BME280;3745;56.964;24.128;2023-02-14T09:13:59;102839.25;;;4.41;100.00
7407;BME280;3745;56.964;24.128;2023-02-14T09:16:25;102817.69;;;4.20;100.00
7407;BME280;3745;56.964;24.128;2023-02-14T09:18:51;102838.38;;;4.29;100.00
7407;BME280;3745;56.964;24.128;2023-02-14T09:21:22;102797.06;;;4.01;100.00
7407;BME280;3745;56.964;24.128;2023-02-14T09:23:48;102845.81;;;4.39;100.00
7407;BME280;3745;56.964;24.128;2023-02-14T09:26:15;102850.59;;;4.36;100.00
7407;BME280;3745;56.964;24.128;2023-02-14T09:28:41;102824.44;;;4.21;100.00
7407;BME280;3745;56.964;24.128;2023-02-14T09:31:09;102845.16;;;4.30;100.00
7407;BME280;3745;56.964;24.128;2023-02-14T09:33:35;102842.94;;;4.23;100.00
7407;BME280;3745;56.964;24.128;2023-02-14T09:36:01;102863.44;;;4.29;100.00
7407;BME280;3745;56.964;24.128;2023-02-14T09:38:45;102877.16;;;4.34;100.00
7407;BME280;3745;56.964;24.128;2023-02-14T09:46:19;102881.09;;;4.42;100.00
7407;BME280;3745;56.964;24.128;2023-02-14T09:48:47;102881.09;;;4.42;100.00
7407;BME280;3745;56.964;24.128;2023-02-14T09:51:16;102842.72;;;4.20;100.00
7407;BME280;3745;56.964;24.128;2023-02-14T09:53:59;102862.25;;;4.47;100.00
7407;BME280;3745;56.964;24.128;2023-02-14T09:56:51;102873.03;;;4.69;100.00
7407;BME280;3745;56.964;24.128;2023-02-14T10:07:28;102873.78;;;4.68;100.00
7407;BME280;3745;56.964;24.128;2023-02-14T10:10:09;102823.34;;;4.29;100.00
7407;BME280;3745;56.964;24.128;2023-02-14T10:15:27;102886.78;;;4.51;100.00
7407;BME280;3745;56.964;24.128;2023-02-14T10:18:13;102881.75;;;4.51;100.00
7407;BME280;3745;56.964;24.128;2023-02-14T10:20:50;102863.00;;;4.46;100.00
7407;BME280;3745;56.964;24.128;2023-02-14T10:23:31;102881.53;;;4.48;100.00
7407;BME280;3745;56.964;24.128;2023-02-14T10:26:15;102879.34;;;4.41;100.00
7407;BME280;3745;56.964;24.128;2023-02-14T10:28:47;102883.94;;;4.47;100.00
7407;BME280;3745;56.964;24.128;2023-02-14T10:33:53;102872.59;;;4.40;100.00
7407;BME280;3745;56.964;24.128;2023-02-14T10:36:54;102881.75;;;4.51;100.00
7407;BME280;3745;56.964;24.128;2023-02-14T10:50:45;102881.75;;;4.63;100.00
7407;BME280;3745;56.964;24.128;2023-02-14T10:53:25;102796.22;;;4.12;100.00
7407;BME280;3745;56.964;24.128;2023-02-14T10:56:00;102852.31;;;4.60;100.00
7407;BME280;3745;56.964;24.128;2023-02-14T10:58:31;102860.81;;;4.62;100.00
7407;BME280;3745;56.964;24.128;2023-02-14T11:01:06;102860.78;;;4.74;100.00
7407;BME280;3745;56.964;24.128;2023-02-14T11:03:33;102883.22;;;4.96;100.00
7407;BME280;3745;56.964;24.128;2023-02-14T11:06:01;102828.78;;;4.58;100.00
7407;BME280;3745;56.964;24.128;2023-02-14T11:08:52;102829.31;;;4.66;100.00
7407;BME280;3745;56.964;24.128;2023-02-14T11:11:38;102886.72;;;4.98;100.00
7407;BME280;3745;56.964;24.128;2023-02-14T11:14:19;102891.31;;;4.91;100.00
7407;BME280;3745;56.964;24.128;2023-02-14T11:16:45;102828.13;;;4.61;100.00
7407;BME280;3745;56.964;24.128;2023-02-14T11:19:32;102887.38;;;5.07;100.00
7407;BME280;3745;56.964;24.128;2023-02-14T11:21:59;102896.91;;;5.24;100.00
7407;BME280;3745;56.964;24.128;2023-02-14T11:24:32;102895.41;;;5.26;100.00
7407;BME280;3745;56.964;24.128;2023-02-14T11:32:14;102888.94;;;5.54;100.00
7407;BME280;3745;56.964;24.128;2023-02-14T11:34:44;102896.34;;;5.64;100.00
7407;BME280;3745;56.964;24.128;2023-02-14T11:39:50;102882.22;;;5.41;100.00
7407;BME280;3745;56.964;24.128;2023-02-14T11:45:00;102897.41;;;5.43;100.00
7407;BME280;3745;56.964;24.128;2023-02-14T11:47:32;102875.16;;;5.36;100.00
7407;BME280;3745;56.964;24.128;2023-02-14T11:50:00;102894.63;;;5.52;100.00
7407;BME280;3745;56.964;24.128;2023-02-14T11:52:27;102826.53;;;4.98;100.00
7407;BME280;3745;56.964;24.128;2023-02-14T11:54:55;102913.03;;;5.39;100.00
7407;BME280;3745;56.964;24.128;2023-02-14T11:57:28;102921.13;;;5.35;100.00
7407;BME280;3745;56.964;24.128;2023-02-14T11:59:58;102915.22;;;5.34;100.00
7407;BME280;3745;56.964;24.128;2023-02-14T12:02:45;102907.88;;;5.13;100.00
7407;BME280;3745;56.964;24.128;2023-02-14T12:05:32;102912.03;;;5.01;100.00
7407;BME280;3745;56.964;24.128;2023-02-14T12:08:03;102914.59;;;5.14;100.00
7407;BME280;3745;56.964;24.128;2023-02-14T12:10:37;102917.47;;;5.07;100.00
7407;BME280;3745;56.964;24.128;2023-02-14T12:13:20;102919.13;;;4.95;100.00
7407;BME280;3745;56.964;24.128;2023-02-14T12:15:53;102913.22;;;5.06;100.00
7407;BME280;3745;56.964;24.128;2023-02-14T12:21:24;102917.16;;;4.90;100.00
7407;BME280;3745;56.964;24.128;2023-02-14T12:24:18;102913.91;;;4.68;100.00
7407;BME280;3745;56.964;24.128;2023-02-14T12:31:57;102883.06;;;4.69;100.00
7407;BME280;3745;56.964;24.128;2023-02-14T12:34:29;102909.22;;;4.84;100.00
7407;BME280;3745;56.964;24.128;2023-02-14T12:42:59;102907.44;;;5.07;100.00
7407;BME280;3745;56.964;24.128;2023-02-14T12:53:51;102908.84;;;5.15;100.00
7407;BME280;3745;56.964;24.128;2023-02-14T13:09:54;102907.03;;;4.77;100.00
7407;BME280;3745;56.964;24.128;2023-02-14T13:12:39;102926.44;;;4.91;100.00
7407;BME280;3745;56.964;24.128;2023-02-14T13:15:17;102924.50;;;4.76;100.00
7407;BME280;3745;56.964;24.128;2023-02-14T13:23:16;102918.16;;;4.69;100.00
7407;BME280;3745;56.964;24.128;2023-02-14T13:25:52;102887.00;;;4.54;100.00
7407;BME280;3745;56.964;24.128;2023-02-14T13:28:20;102927.75;;;4.63;100.00
7407;BME280;3745;56.964;24.128;2023-02-14T13:30:46;102928.88;;;4.55;100.00
7407;BME280;3745;56.964;24.128;2023-02-14T13:33:34;102938.66;;;4.52;100.00
7407;BME280;3745;56.964;24.128;2023-02-14T13:36:06;102951.44;;;4.67;100.00
7407;BME280;3745;56.964;24.128;2023-02-14T13:38:37;102957.63;;;4.72;100.00
7407;BME280;3745;56.964;24.128;2023-02-14T13:41:06;102882.97;;;4.33;100.00
7407;BME280;3745;56.964;24.128;2023-02-14T13:43:59;102958.28;;;4.69;100.00
7407;BME280;3745;56.964;24.128;2023-02-14T13:51:47;102962.00;;;4.51;100.00
7407;BME280;3745;56.964;24.128;2023-02-14T13:54:34;102957.59;;;4.37;100.00
7407;BME280;3745;56.964;24.128;2023-02-14T13:57:22;102964.34;;;4.38;100.00
7407;BME280;3745;56.964;24.128;2023-02-14T14:02:51;102970.69;;;4.33;100.00
7407;BME280;3745;56.964;24.128;2023-02-14T14:10:50;102891.81;;;3.61;100.00
7407;BME280;3745;56.964;24.128;2023-02-14T14:21:44;102834.28;;;3.18;100.00
7407;BME280;3745;56.964;24.128;2023-02-14T14:29:45;102968.53;;;4.04;100.00
7407;BME280;3745;56.964;24.128;2023-02-14T14:32:17;102925.81;;;3.69;100.00
7407;BME280;3745;56.964;24.128;2023-02-14T14:34:58;102941.28;;;3.75;100.00
7407;BME280;3745;56.964;24.128;2023-02-14T14:37:27;102865.06;;;3.17;100.00
7407;BME280;3745;56.964;24.128;2023-02-14T14:39:55;102961.88;;;3.71;100.00
7407;BME280;3745;56.964;24.128;2023-02-14T14:42:23;102976.56;;;3.78;100.00
7407;BME280;3745;56.964;24.128;2023-02-14T14:44:58;102976.13;;;3.72;100.00
7407;BME280;3745;56.964;24.128;2023-02-14T14:47:30;102951.69;;;3.58;100.00
7407;BME280;3745;56.964;24.128;2023-02-14T14:50:04;102980.50;;;3.75;100.00
7407;BME280;3745;56.964;24.128;2023-02-14T14:52:42;102955.38;;;3.63;100.00
7407;BME280;3745;56.964;24.128;2023-02-14T14:55:19;102974.38;;;3.71;100.00
7407;BME280;3745;56.964;24.128;2023-02-14T14:57:54;102967.69;;;3.60;100.00
7407;BME280;3745;56.964;24.128;2023-02-14T15:00:28;102970.41;;;3.63;100.00
7407;BME280;3745;56.964;24.128;2023-02-14T15:02:56;102912.31;;;3.24;100.00
7407;BME280;3745;56.964;24.128;2023-02-14T15:05:25;102976.19;;;3.62;100.00
7407;BME280;3745;56.964;24.128;2023-02-14T15:07:51;102938.50;;;3.39;100.00
7407;BME280;3745;56.964;24.128;2023-02-14T15:10:27;102898.53;;;3.07;100.00
7407;BME280;3745;56.964;24.128;2023-02-14T15:12:57;102946.09;;;3.29;100.00
7407;BME280;3745;56.964;24.128;2023-02-14T15:15:47;102978.38;;;3.48;100.00
7407;BME280;3745;56.964;24.128;2023-02-14T15:18:14;102963.59;;;3.29;100.00
7407;BME280;3745;56.964;24.128;2023-02-14T15:20:40;102994.91;;;3.46;100.00
7407;BME280;3745;56.964;24.128;2023-02-14T15:23:15;102932.19;;;3.01;100.00
7407;BME280;3745;56.964;24.128;2023-02-14T15:25:43;102975.63;;;3.23;100.00
7407;BME280;3745;56.964;24.128;2023-02-14T15:28:27;102995.09;;;3.37;100.00
7407;BME280;3745;56.964;24.128;2023-02-14T15:31:02;102992.84;;;3.30;100.00
7407;BME280;3745;56.964;24.128;2023-02-14T15:33:29;102957.84;;;2.98;100.00
7407;BME280;3745;56.964;24.128;2023-02-14T15:35:57;102992.13;;;3.21;100.00
7407;BME280;3745;56.964;24.128;2023-02-14T15:38:26;102941.25;;;2.89;100.00
7407;BME280;3745;56.964;24.128;2023-02-14T15:40:52;102993.41;;;3.16;100.00
7407;BME280;3745;56.964;24.128;2023-02-14T15:45:56;102976.56;;;3.03;100.00